Time;durP1;ratioP1;P1;durP2;ratioP2;P2;SDS_P1;SDS_P2;PMS_P1;PMS_P2;Temp;Humidity;BMP_temperature;BMP_pressure;BME280_temperature;BME280_humidity;BME280_pressure;Samples;Min_cycle;Max_cycle;Signal;HPM_P1;HPM_P2
2022/09/11 00:00:16;;;;;;;;;;;;;;;20.37;64.74;101437.00;1063146;27;606;-74
2022/09/11 00:01:06;;;;;;;;;;;;;;;20.37;64.82;101437.00;1064188;27;747;-74
2022/09/11 00:01:56;;;;;;;;;;;;;;;20.37;64.91;101437.00;1063101;27;629;-74
2022/09/11 00:02:47;;;;;;;;;;;;;;;20.36;65.18;101451.53;1063273;27;707;-74
2022/09/11 00:03:37;;;;;;;;;;;;;;;20.37;65.35;101441.56;1064274;27;653;-74
2022/09/11 00:04:29;;;;;;;;;;;;;;;20.38;65.21;101438.72;1063438;27;653;-74
2022/09/11 00:05:19;;;;;;;;;;;;;;;20.37;65.08;101441.56;1063988;27;923;-74
2022/09/11 00:06:09;;;;;;;;;;;;;;;20.38;64.68;101445.97;1063037;27;673;-74
2022/09/11 00:07:00;;;;;;;;;;;;;;;20.35;64.93;101447.09;1064835;27;704;-75
2022/09/11 00:07:50;;;;;;;;;;;;;;;20.35;64.94;101438.97;1062961;27;569;-74
2022/09/11 00:08:41;;;;;;;;;;;;;;;20.33;64.74;101438.25;1064921;27;635;-74
2022/09/11 00:09:31;;;;;;;;;;;;;;;20.32;65.42;101433.84;1064854;27;648;-74
2022/09/11 00:10:21;;;;;;;;;;;;;;;20.29;65.38;101450.38;1063005;27;692;-75
2022/09/11 00:11:12;;;;;;;;;;;;;;;20.31;64.89;101442.13;1064560;27;1961;-74
2022/09/11 00:12:02;;;;;;;;;;;;;;;20.32;65.03;101438.41;1064256;27;631;-75
2022/09/11 00:12:53;;;;;;;;;;;;;;;20.33;65.21;101437.41;1063294;27;633;-75
2022/09/11 00:13:43;;;;;;;;;;;;;;;20.32;65.32;101438.41;1062956;27;657;-75
2022/09/11 00:14:34;;;;;;;;;;;;;;;20.32;65.14;101441.97;1063038;27;700;-74
2022/09/11 00:15:24;;;;;;;;;;;;;;;20.32;64.95;101438.41;1064123;27;788;-75
2022/09/11 00:16:16;;;;;;;;;;;;;;;20.32;64.93;101441.97;1062780;27;654;-74
2022/09/11 00:17:09;;;;;;;;;;;;;;;20.33;64.94;101446.38;1063583;27;641;-74
2022/09/11 00:17:59;;;;;;;;;;;;;;;20.31;65.08;101442.13;1064230;27;621;-74
2022/09/11 00:18:50;;;;;;;;;;;;;;;20.30;65.01;101443.13;1064907;27;649;-75
2022/09/11 00:19:41;;;;;;;;;;;;;;;20.31;65.28;101436.69;1062802;27;642;-75
2022/09/11 00:20:32;;;;;;;;;;;;;;;20.31;64.58;101445.69;1064336;27;641;-74
2022/09/11 00:21:22;;;;;;;;;;;;;;;20.32;65.02;101449.22;1064012;27;642;-75
2022/09/11 00:22:12;;;;;;;;;;;;;;;20.30;64.68;101456.66;1063054;27;603;-74
2022/09/11 00:23:06;;;;;;;;;;;;;;;20.28;64.72;101448.66;1060209;27;574;-74
2022/09/11 00:23:56;;;;;;;;;;;;;;;20.29;64.83;101449.53;1061777;27;661;-74
2022/09/11 00:24:47;;;;;;;;;;;;;;;20.28;64.95;101448.66;1060220;27;701;-74
2022/09/11 00:25:39;;;;;;;;;;;;;;;20.27;64.90;101449.66;1060417;27;649;-74
2022/09/11 00:26:30;;;;;;;;;;;;;;;20.28;65.11;101458.66;1057347;28;676;-74
2022/09/11 00:27:20;;;;;;;;;;;;;;;20.28;64.77;101454.09;1055916;28;642;-74
2022/09/11 00:28:10;;;;;;;;;;;;;;;20.28;64.99;101456.78;1060566;27;891;-74
2022/09/11 00:29:02;;;;;;;;;;;;;;;20.27;64.57;101456.94;1062009;27;716;-74
2022/09/11 00:29:53;;;;;;;;;;;;;;;20.28;64.99;101454.09;1061361;27;680;-74
2022/09/11 00:30:43;;;;;;;;;;;;;;;20.28;64.86;101458.66;1059642;27;674;-74
2022/09/11 00:31:34;;;;;;;;;;;;;;;20.26;65.19;101461.50;1057953;28;646;-74
2022/09/11 00:32:24;;;;;;;;;;;;;;;20.25;64.83;101459.78;1048922;28;614;-74
2022/09/11 00:33:15;;;;;;;;;;;;;;;20.26;64.74;101458.78;1053291;28;563;-74
2022/09/11 00:34:05;;;;;;;;;;;;;;;20.25;65.09;101457.06;1052598;28;729;-74
2022/09/11 00:34:56;;;;;;;;;;;;;;;20.25;64.97;101453.53;1051982;28;713;-74
2022/09/11 00:35:46;;;;;;;;;;;;;;;20.23;65.22;101450.13;1052752;28;810;-74
2022/09/11 00:36:40;;;;;;;;;;;;;;;20.24;64.73;101451.84;1052909;28;681;-74
2022/09/11 00:37:30;;;;;;;;;;;;;;;20.23;64.85;101448.28;1052037;28;698;-74
2022/09/11 00:38:20;;;;;;;;;;;;;;;20.24;65.19;101449.13;1052649;28;673;-74
2022/09/11 00:39:11;;;;;;;;;;;;;;;20.24;65.10;101451.84;1057400;28;645;-74
2022/09/11 00:40:01;;;;;;;;;;;;;;;20.22;65.23;101454.69;1056737;28;625;-75
2022/09/11 00:40:52;;;;;;;;;;;;;;;20.20;65.26;101448.56;1053067;28;684;-75
2022/09/11 00:41:43;;;;;;;;;;;;;;;20.21;65.11;101446.72;1052705;28;654;-75
2022/09/11 00:42:34;;;;;;;;;;;;;;;20.21;65.10;101450.28;1051912;28;665;-75
2022/09/11 00:43:24;;;;;;;;;;;;;;;20.21;64.85;101453.00;1052663;28;917;-75
2022/09/11 00:44:15;;;;;;;;;;;;;;;20.20;65.14;101451.28;1052745;28;626;-75
2022/09/11 00:45:06;;;;;;;;;;;;;;;20.21;65.09;101453.00;1051300;28;682;-75
2022/09/11 00:45:56;;;;;;;;;;;;;;;20.22;64.73;101453.84;1052666;28;642;-75
2022/09/11 00:46:47;;;;;;;;;;;;;;;20.22;64.82;101457.41;1052784;28;630;-75
2022/09/11 00:47:37;;;;;;;;;;;;;;;20.22;65.42;101457.41;1052904;28;648;-75
2022/09/11 00:48:28;;;;;;;;;;;;;;;20.21;64.95;101458.41;1052739;28;657;-75
2022/09/11 00:49:19;;;;;;;;;;;;;;;20.20;65.04;101461.25;1051779;28;689;-75
2022/09/11 00:50:09;;;;;;;;;;;;;;;20.20;65.02;101461.25;1052761;28;637;-75
2022/09/11 00:51:00;;;;;;;;;;;;;;;20.18;65.31;101453.28;1052239;28;1953;-76
2022/09/11 00:51:52;;;;;;;;;;;;;;;20.19;64.89;101457.69;1057283;28;629;-75
2022/09/11 00:52:43;;;;;;;;;;;;;;;20.18;65.12;101461.41;1057229;27;1148;-74
2022/09/11 00:53:33;;;;;;;;;;;;;;;20.17;65.20;101448.00;1060652;27;606;-75
2022/09/11 00:54:24;;;;;;;;;;;;;;;20.15;65.25;101445.44;1057543;27;1231;-76
2022/09/11 00:55:15;;;;;;;;;;;;;;;20.15;64.98;101448.16;1054580;28;1160;-76
2022/09/11 00:56:05;;;;;;;;;;;;;;;20.15;64.94;101453.56;1055784;28;1066;-75
2022/09/11 00:56:56;;;;;;;;;;;;;;;20.15;64.96;101445.44;1054653;28;1121;-75
2022/09/11 00:57:46;;;;;;;;;;;;;;;20.15;65.14;101458.97;1055937;28;1130;-75
2022/09/11 00:58:37;;;;;;;;;;;;;;;20.13;65.16;101455.56;1054182;28;1141;-75
2022/09/11 00:59:27;;;;;;;;;;;;;;;20.15;65.00;101450.00;1055659;28;1105;-75
2022/09/11 01:00:18;;;;;;;;;;;;;;;20.14;65.17;101457.28;1055371;28;1066;-75
2022/09/11 01:01:09;;;;;;;;;;;;;;;20.13;64.75;101454.69;1051806;28;1088;-75
2022/09/11 01:01:59;;;;;;;;;;;;;;;20.14;64.96;101459.97;1051656;28;1070;-75
2022/09/11 01:02:50;;;;;;;;;;;;;;;20.14;64.55;101449.16;1056840;28;1106;-75
2022/09/11 01:03:41;;;;;;;;;;;;;;;20.14;64.80;101449.16;1055020;28;1188;-75
2022/09/11 01:04:32;;;;;;;;;;;;;;;20.15;64.81;101453.56;1056978;28;1267;-75
2022/09/11 01:05:22;;;;;;;;;;;;;;;20.14;64.57;101456.41;1055309;28;1086;-75
2022/09/11 01:06:13;;;;;;;;;;;;;;;20.12;64.62;101459.25;1053506;28;1164;-75
2022/09/11 01:07:03;;;;;;;;;;;;;;;20.14;64.69;101456.41;1056134;28;1137;-75
2022/09/11 01:07:54;;;;;;;;;;;;;;;20.13;64.57;101460.13;1054743;28;1098;-74
2022/09/11 01:08:44;;;;;;;;;;;;;;;20.12;64.62;101464.69;1051198;28;1138;-74
2022/09/11 01:09:34;;;;;;;;;;;;;;;20.13;65.08;101466.38;1049170;28;987;-75
2022/09/11 01:10:25;;;;;;;;;;;;;;;20.10;64.61;101455.84;1056403;28;1098;-74
2022/09/11 01:11:15;;;;;;;;;;;;;;;20.10;64.93;101455.84;1053569;28;1965;-75
2022/09/11 01:12:06;;;;;;;;;;;;;;;20.09;64.86;101459.56;1056021;28;1230;-75
2022/09/11 01:12:56;;;;;;;;;;;;;;;20.07;64.55;101461.53;1055146;28;1132;-75
2022/09/11 01:13:47;;;;;;;;;;;;;;;20.09;64.64;101462.25;1056029;28;1106;-75
2022/09/11 01:14:37;;;;;;;;;;;;;;;20.10;64.47;101466.66;1054653;28;1145;-75
2022/09/11 01:15:28;;;;;;;;;;;;;;;20.07;64.59;101453.44;1056197;28;1074;-75
2022/09/11 01:16:18;;;;;;;;;;;;;;;20.05;64.61;101464.44;1054652;28;1078;-74
2022/09/11 01:17:09;;;;;;;;;;;;;;;20.06;64.56;101459.88;1056183;28;1146;-74
2022/09/11 01:17:59;;;;;;;;;;;;;;;20.05;64.89;101458.16;1054374;28;1136;-75
2022/09/11 01:18:49;;;;;;;;;;;;;;;20.03;64.48;101460.16;1056156;28;1102;-75
2022/09/11 01:19:40;;;;;;;;;;;;;;;20.04;64.95;101462.72;1054403;28;1169;-74
2022/09/11 01:20:30;;;;;;;;;;;;;;;20.04;64.40;101468.13;1056650;28;1205;-75
2022/09/11 01:21:21;;;;;;;;;;;;;;;20.03;64.69;101460.16;1055188;28;1128;-75
2022/09/11 01:22:11;;;;;;;;;;;;;;;20.03;64.38;101466.41;1056831;28;1117;-75
2022/09/11 01:23:02;;;;;;;;;;;;;;;20.03;64.40;101458.31;1055291;28;1053;-75
2022/09/11 01:23:53;;;;;;;;;;;;;;;20.03;64.70;101463.72;1056356;28;1228;-75
2022/09/11 01:24:44;;;;;;;;;;;;;;;20.01;64.97;101459.44;1055685;28;1086;-75
2022/09/11 01:25:34;;;;;;;;;;;;;;;20.03;64.76;101468.28;1054691;28;1098;-75
2022/09/11 01:26:25;;;;;;;;;;;;;;;20.02;64.50;101461.16;1055633;28;1045;-75
2022/09/11 01:27:15;;;;;;;;;;;;;;;20.03;64.47;101471.84;1054254;28;1137;-75
2022/09/11 01:28:06;;;;;;;;;;;;;;;20.06;64.45;101465.28;1055806;28;1129;-75
2022/09/11 01:28:56;;;;;;;;;;;;;;;20.04;64.65;101470.84;1054088;28;1129;-76
2022/09/11 01:29:46;;;;;;;;;;;;;;;20.04;64.54;101467.28;1055840;28;1193;-75
2022/09/11 01:30:37;;;;;;;;;;;;;;;20.03;64.71;101471.84;1053982;28;1069;-75
2022/09/11 01:31:27;;;;;;;;;;;;;;;20.03;64.54;101468.28;1055911;28;1161;-75
2022/09/11 01:32:18;;;;;;;;;;;;;;;20.00;64.58;101466.72;1057190;27;1092;-75
2022/09/11 01:33:10;;;;;;;;;;;;;;;20.00;64.55;101473.97;1056745;28;1085;-75
2022/09/11 01:34:01;;;;;;;;;;;;;;;19.98;64.89;101465.13;1055421;28;1078;-75
2022/09/11 01:34:51;;;;;;;;;;;;;;;19.99;64.56;101467.69;1055559;28;1277;-75
2022/09/11 01:35:42;;;;;;;;;;;;;;;19.97;64.60;101466.13;1054559;28;1122;-74
2022/09/11 01:36:33;;;;;;;;;;;;;;;19.99;64.43;101472.25;1055759;28;1228;-74
2022/09/11 01:37:23;;;;;;;;;;;;;;;19.97;64.56;101467.00;1056088;28;1186;-74
2022/09/11 01:38:14;;;;;;;;;;;;;;;19.98;64.45;101467.84;1054528;28;1078;-75
2022/09/11 01:39:04;;;;;;;;;;;;;;;19.98;64.79;101463.28;1056523;28;1026;-75
2022/09/11 01:39:54;;;;;;;;;;;;;;;19.97;65.00;101471.53;1053869;28;1099;-75
2022/09/11 01:40:45;;;;;;;;;;;;;;;19.95;64.70;101468.97;1056834;28;704;-74
2022/09/11 01:41:35;;;;;;;;;;;;;;;19.95;64.82;101462.72;1056087;28;570;-75
2022/09/11 01:42:26;;;;;;;;;;;;;;;19.93;64.65;101460.16;1056244;28;653;-74
2022/09/11 01:43:16;;;;;;;;;;;;;;;19.94;65.06;101461.00;1056051;28;657;-74
2022/09/11 01:44:06;;;;;;;;;;;;;;;19.95;65.00;101460.00;1056731;28;637;-74
2022/09/11 01:44:57;;;;;;;;;;;;;;;19.94;65.10;101458.31;1056837;28;692;-74
2022/09/11 01:45:47;;;;;;;;;;;;;;;19.95;64.73;101460.88;1056004;28;711;-74
2022/09/11 01:46:39;;;;;;;;;;;;;;;19.96;64.70;101457.16;1056283;28;645;-74
2022/09/11 01:47:30;;;;;;;;;;;;;;;19.94;64.41;101467.28;1056164;28;634;-74
2022/09/11 01:48:20;;;;;;;;;;;;;;;19.94;65.04;101466.41;1056329;28;665;-74
2022/09/11 01:49:10;;;;;;;;;;;;;;;19.93;64.90;101462.88;1056005;28;634;-74
2022/09/11 01:50:02;;;;;;;;;;;;;;;19.94;64.33;101461.00;1056303;28;712;-74
2022/09/11 01:50:53;;;;;;;;;;;;;;;19.92;64.51;101461.16;1054764;28;1906;-74
2022/09/11 01:51:43;;;;;;;;;;;;;;;19.92;64.40;101460.31;1055381;28;701;-75
2022/09/11 01:52:33;;;;;;;;;;;;;;;19.91;64.69;101464.00;1055641;28;708;-75
2022/09/11 01:53:24;;;;;;;;;;;;;;;19.92;64.60;101453.03;1052166;28;693;-75
2022/09/11 01:54:15;;;;;;;;;;;;;;;19.91;63.91;101462.16;1053107;28;640;-75
2022/09/11 01:55:06;;;;;;;;;;;;;;;19.89;64.49;101464.13;1051585;28;705;-75
2022/09/11 01:55:56;;;;;;;;;;;;;;;19.88;64.47;101456.19;1056235;28;794;-75
2022/09/11 01:56:47;;;;;;;;;;;;;;;19.88;64.83;101450.78;1056364;28;637;-75
2022/09/11 01:57:37;;;;;;;;;;;;;;;19.89;64.22;101458.72;1052222;28;681;-75
2022/09/11 01:58:28;;;;;;;;;;;;;;;19.87;64.50;101458.06;1051923;28;630;-75
2022/09/11 01:59:18;;;;;;;;;;;;;;;19.88;64.49;101457.06;1051854;28;594;-75
2022/09/11 02:00:09;;;;;;;;;;;;;;;19.88;64.78;101461.63;1051805;28;1075;-75
2022/09/11 02:01:00;;;;;;;;;;;;;;;19.88;64.44;101456.19;1052044;28;700;-74
2022/09/11 02:01:50;;;;;;;;;;;;;;;19.88;64.63;101467.03;1051560;28;697;-74
2022/09/11 02:02:41;;;;;;;;;;;;;;;19.88;64.58;101465.16;1053081;28;618;-74
2022/09/11 02:03:31;;;;;;;;;;;;;;;19.87;64.51;101465.31;1051548;28;626;-75
2022/09/11 02:04:22;;;;;;;;;;;;;;;19.87;64.51;101466.16;1057547;28;621;-75
2022/09/11 02:05:14;;;;;;;;;;;;;;;19.87;64.39;101468.03;1057110;28;761;-75
2022/09/11 02:06:04;;;;;;;;;;;;;;;19.87;64.43;101466.16;1053011;28;847;-75
2022/09/11 02:06:55;;;;;;;;;;;;;;;19.86;64.15;101463.59;1053186;28;855;-75
2022/09/11 02:07:45;;;;;;;;;;;;;;;19.86;64.49;101463.59;1051610;28;974;-75
2022/09/11 02:08:36;;;;;;;;;;;;;;;19.87;64.78;101470.72;1051924;28;681;-75
2022/09/11 02:09:26;;;;;;;;;;;;;;;19.86;64.50;101466.31;1052081;28;630;-74
2022/09/11 02:10:16;;;;;;;;;;;;;;;19.85;64.59;101468.16;1051907;28;610;-74
2022/09/11 02:11:08;;;;;;;;;;;;;;;19.86;64.47;101463.59;1051704;28;1913;-74
2022/09/11 02:11:58;;;;;;;;;;;;;;;19.84;64.54;101463.75;1051517;28;638;-75
2022/09/11 02:12:48;;;;;;;;;;;;;;;19.83;64.69;101472.00;1051740;28;705;-75
2022/09/11 02:13:39;;;;;;;;;;;;;;;19.82;64.76;101467.59;1051958;28;720;-75
2022/09/11 02:14:29;;;;;;;;;;;;;;;19.82;64.18;101467.59;1051793;28;677;-75
2022/09/11 02:15:20;;;;;;;;;;;;;;;19.84;64.72;101468.31;1051766;28;634;-75
2022/09/11 02:16:11;;;;;;;;;;;;;;;19.84;64.08;101471.00;1051791;28;701;-75
2022/09/11 02:17:02;;;;;;;;;;;;;;;19.81;64.07;101469.44;1052057;28;678;-75
2022/09/11 02:17:52;;;;;;;;;;;;;;;19.82;64.29;101481.13;1051644;28;644;-75
2022/09/11 02:18:43;;;;;;;;;;;;;;;19.80;64.13;101475.84;1051858;28;603;-74
2022/09/11 02:19:33;;;;;;;;;;;;;;;19.79;64.51;101479.53;1051927;28;594;-74
2022/09/11 02:20:24;;;;;;;;;;;;;;;19.81;64.40;101479.41;1051741;28;658;-74
2022/09/11 02:21:15;;;;;;;;;;;;;;;19.81;64.12;101474.00;1051297;28;658;-74
2022/09/11 02:22:06;;;;;;;;;;;;;;;19.80;64.00;101477.69;1052051;28;613;-74
2022/09/11 02:22:57;;;;;;;;;;;;;;;19.82;64.11;101481.13;1051278;28;626;-74
2022/09/11 02:23:48;;;;;;;;;;;;;;;19.81;64.23;101482.09;1051805;28;796;-74
2022/09/11 02:24:38;;;;;;;;;;;;;;;19.80;64.22;101477.69;1051142;28;685;-74
2022/09/11 02:25:29;;;;;;;;;;;;;;;19.77;64.31;101476.97;1051849;28;725;-74
2022/09/11 02:26:20;;;;;;;;;;;;;;;19.78;63.98;101483.25;1051696;28;776;-74
2022/09/11 02:27:10;;;;;;;;;;;;;;;19.77;64.59;101482.38;1051950;28;681;-74
2022/09/11 02:28:00;;;;;;;;;;;;;;;19.79;64.49;101482.25;1052896;28;673;-74
2022/09/11 02:28:51;;;;;;;;;;;;;;;19.77;64.33;101479.69;1051742;28;670;-75
2022/09/11 02:29:42;;;;;;;;;;;;;;;19.77;64.02;101481.53;1051521;28;736;-75
2022/09/11 02:30:32;;;;;;;;;;;;;;;19.75;63.99;101484.38;1051664;28;615;-74
2022/09/11 02:31:23;;;;;;;;;;;;;;;19.75;63.90;101488.94;1051815;28;1974;-73
2022/09/11 02:32:13;;;;;;;;;;;;;;;19.73;63.86;101491.78;1059076;27;1218;-74
2022/09/11 02:33:04;;;;;;;;;;;;;;;19.72;63.86;101486.50;1061333;27;684;-74
2022/09/11 02:33:54;;;;;;;;;;;;;;;19.74;64.02;101487.22;1059812;27;705;-74
2022/09/11 02:34:45;;;;;;;;;;;;;;;19.72;64.02;101490.06;1059410;27;739;-74
2022/09/11 02:35:36;;;;;;;;;;;;;;;19.73;64.07;101486.38;1060789;27;689;-74
2022/09/11 02:36:27;;;;;;;;;;;;;;;19.72;63.87;101490.06;1060051;27;700;-74
2022/09/11 02:37:17;;;;;;;;;;;;;;;19.74;64.21;101488.09;1060379;27;677;-74
2022/09/11 02:38:07;;;;;;;;;;;;;;;19.74;63.94;101489.94;1061352;27;617;-74
2022/09/11 02:38:58;;;;;;;;;;;;;;;19.70;64.41;101486.69;1059781;27;655;-74
2022/09/11 02:39:48;;;;;;;;;;;;;;;19.72;64.03;101483.81;1059374;27;635;-74
2022/09/11 02:40:40;;;;;;;;;;;;;;;19.71;63.56;101488.38;1061404;27;664;-74
2022/09/11 02:41:30;;;;;;;;;;;;;;;19.69;63.66;101490.38;1060706;27;681;-74
2022/09/11 02:42:21;;;;;;;;;;;;;;;19.69;63.53;101487.69;1060880;27;612;-74
2022/09/11 02:43:12;;;;;;;;;;;;;;;19.71;63.49;101482.94;1060570;27;672;-74
2022/09/11 02:44:02;;;;;;;;;;;;;;;19.69;63.91;101482.28;1060924;27;566;-73
2022/09/11 02:44:52;;;;;;;;;;;;;;;19.69;63.89;101479.56;1059459;27;657;-73
2022/09/11 02:45:43;;;;;;;;;;;;;;;19.69;64.09;101482.28;1061133;27;665;-73
2022/09/11 02:46:33;;;;;;;;;;;;;;;19.69;63.62;101479.56;1059267;27;614;-73
2022/09/11 02:47:24;;;;;;;;;;;;;;;19.70;63.49;101480.41;1059613;27;690;-74
2022/09/11 02:48:14;;;;;;;;;;;;;;;19.70;63.60;101486.69;1059935;27;685;-73
2022/09/11 02:49:06;;;;;;;;;;;;;;;19.70;63.90;101485.84;1059484;27;638;-74
2022/09/11 02:49:57;;;;;;;;;;;;;;;19.69;64.18;101482.28;1060673;27;621;-74
2022/09/11 02:50:47;;;;;;;;;;;;;;;19.68;63.95;101477.84;1059724;27;716;-73
2022/09/11 02:51:37;;;;;;;;;;;;;;;19.69;63.57;101481.41;1061268;27;692;-74
2022/09/11 02:52:28;;;;;;;;;;;;;;;19.68;63.68;101477.00;1059676;27;618;-73
2022/09/11 02:53:19;;;;;;;;;;;;;;;19.67;63.87;101475.28;1053518;28;680;-73
2022/09/11 02:54:09;;;;;;;;;;;;;;;19.67;63.93;101481.56;1052895;28;626;-73
2022/09/11 02:55:00;;;;;;;;;;;;;;;19.66;63.59;101476.28;1052233;28;577;-74
2022/09/11 02:55:51;;;;;;;;;;;;;;;19.64;63.80;101487.25;1051993;28;685;-73
2022/09/11 02:56:41;;;;;;;;;;;;;;;19.66;63.59;101484.41;1052256;28;787;-73
2022/09/11 02:57:32;;;;;;;;;;;;;;;19.67;63.43;101486.97;1052599;28;860;-73
2022/09/11 02:58:22;;;;;;;;;;;;;;;19.67;63.48;101491.53;1052659;28;668;-73
2022/09/11 02:59:14;;;;;;;;;;;;;;;19.67;63.25;101491.53;1052968;28;574;-73
2022/09/11 03:00:04;;;;;;;;;;;;;;;19.65;63.98;101485.41;1052377;28;677;-73
2022/09/11 03:00:55;;;;;;;;;;;;;;;19.65;63.40;101483.53;1052184;28;634;-73
2022/09/11 03:01:46;;;;;;;;;;;;;;;19.63;63.86;101485.53;1052231;28;613;-73
2022/09/11 03:02:36;;;;;;;;;;;;;;;19.63;63.95;101485.53;1052347;28;645;-73
2022/09/11 03:03:26;;;;;;;;;;;;;;;19.64;63.71;101481.84;1052201;28;618;-72
2022/09/11 03:04:17;;;;;;;;;;;;;;;19.62;64.25;101483.81;1052242;28;669;-73
2022/09/11 03:05:08;;;;;;;;;;;;;;;19.63;63.52;101484.69;1052255;28;673;-73
2022/09/11 03:05:58;;;;;;;;;;;;;;;19.62;63.66;101483.81;1052336;28;617;-73
2022/09/11 03:06:49;;;;;;;;;;;;;;;19.62;63.60;101483.81;1052695;28;661;-73
2022/09/11 03:07:39;;;;;;;;;;;;;;;19.61;63.30;101492.94;1052310;28;661;-73
2022/09/11 03:08:31;;;;;;;;;;;;;;;19.61;63.33;101486.66;1052802;28;701;-73
2022/09/11 03:09:21;;;;;;;;;;;;;;;19.57;63.25;101488.78;1052367;28;642;-73
2022/09/11 03:10:12;;;;;;;;;;;;;;;19.59;63.96;101494.06;1051719;28;670;-73
2022/09/11 03:11:02;;;;;;;;;;;;;;;19.59;63.94;101488.66;1051909;28;1914;-73
2022/09/11 03:11:53;;;;;;;;;;;;;;;19.59;63.76;101489.50;1052111;28;760;-73
2022/09/11 03:12:44;;;;;;;;;;;;;;;19.60;63.46;101493.06;1052438;28;660;-73
2022/09/11 03:13:35;;;;;;;;;;;;;;;19.59;63.23;101486.81;1052976;28;696;-73
2022/09/11 03:14:25;;;;;;;;;;;;;;;19.59;63.19;101494.06;1052785;28;610;-73
2022/09/11 03:15:16;;;;;;;;;;;;;;;19.58;63.37;101493.22;1052286;28;665;-73
2022/09/11 03:16:06;;;;;;;;;;;;;;;19.59;63.19;101492.22;1052628;28;735;-74
2022/09/11 03:16:57;;;;;;;;;;;;;;;19.57;63.17;101488.78;1052288;28;672;-74
2022/09/11 03:17:47;;;;;;;;;;;;;;;19.56;63.88;101494.34;1052190;28;598;-73
2022/09/11 03:18:38;;;;;;;;;;;;;;;19.56;63.92;101497.91;1052396;28;666;-73
2022/09/11 03:19:29;;;;;;;;;;;;;;;19.57;63.52;101491.50;1052459;28;617;-74
2022/09/11 03:20:20;;;;;;;;;;;;;;;19.56;63.63;101494.34;1053402;28;672;-73
2022/09/11 03:21:11;;;;;;;;;;;;;;;19.55;63.70;101493.50;1052206;28;685;-73
2022/09/11 03:22:02;;;;;;;;;;;;;;;19.54;63.88;101489.06;1052354;28;626;-73
2022/09/11 03:22:52;;;;;;;;;;;;;;;19.55;63.97;101495.34;1052323;28;645;-73
2022/09/11 03:23:42;;;;;;;;;;;;;;;19.54;63.68;101483.66;1052693;28;705;-73
2022/09/11 03:24:33;;;;;;;;;;;;;;;19.55;63.66;101490.78;1051855;28;693;-75
2022/09/11 03:25:27;;;;;;;;;;;;;;;19.54;63.88;101490.91;1053005;28;657;-75
2022/09/11 03:26:17;;;;;;;;;;;;;;;19.55;63.53;101488.09;1052403;28;707;-75
2022/09/11 03:27:07;;;;;;;;;;;;;;;19.56;63.17;101488.94;1052647;28;732;-75
2022/09/11 03:27:58;;;;;;;;;;;;;;;19.53;63.58;101489.22;1052203;28;636;-75
2022/09/11 03:28:49;;;;;;;;;;;;;;;19.52;64.00;101491.09;1052354;28;650;-75
2022/09/11 03:29:39;;;;;;;;;;;;;;;19.54;63.84;101493.63;1053529;28;676;-75
2022/09/11 03:30:30;;;;;;;;;;;;;;;19.53;63.50;101498.19;1052251;28;610;-75
2022/09/11 03:31:20;;;;;;;;;;;;;;;19.51;63.76;101497.50;1052289;28;1897;-75
2022/09/11 03:32:11;;;;;;;;;;;;;;;19.48;64.01;101495.03;1058518;28;1241;-75
2022/09/11 03:33:01;;;;;;;;;;;;;;;19.49;64.12;101494.03;1059892;28;584;-75
2022/09/11 03:33:52;;;;;;;;;;;;;;;19.50;63.51;101497.63;1059555;28;657;-75
2022/09/11 03:34:43;;;;;;;;;;;;;;;19.51;63.31;101497.50;1060635;28;666;-73
2022/09/11 03:35:33;;;;;;;;;;;;;;;19.51;63.46;101499.34;1061244;28;703;-74
2022/09/11 03:36:24;;;;;;;;;;;;;;;19.51;63.71;101496.63;1059473;28;736;-73
2022/09/11 03:37:15;;;;;;;;;;;;;;;19.50;63.52;101506.59;1060574;28;633;-74
2022/09/11 03:38:05;;;;;;;;;;;;;;;19.50;63.80;101501.19;1059662;28;650;-74
2022/09/11 03:38:55;;;;;;;;;;;;;;;19.50;63.52;101511.16;1060751;28;652;-74
2022/09/11 03:39:47;;;;;;;;;;;;;;;19.48;63.82;101500.44;1059451;28;581;-74
2022/09/11 03:40:37;;;;;;;;;;;;;;;19.49;63.66;101499.44;1060766;28;668;-74
2022/09/11 03:41:27;;;;;;;;;;;;;;;19.51;63.43;101504.75;1060599;28;606;-74
2022/09/11 03:42:18;;;;;;;;;;;;;;;19.52;63.42;101510.03;1059510;28;557;-74
2022/09/11 03:43:08;;;;;;;;;;;;;;;19.50;63.63;101505.75;1061261;28;712;-74
2022/09/11 03:43:59;;;;;;;;;;;;;;;19.50;63.40;101508.44;1061212;28;639;-73
2022/09/11 03:44:49;;;;;;;;;;;;;;;19.49;63.29;101502.16;1059742;28;728;-73
2022/09/11 03:45:39;;;;;;;;;;;;;;;19.49;63.23;101504.84;1059212;28;649;-73
2022/09/11 03:46:31;;;;;;;;;;;;;;;19.48;63.23;101497.75;1059517;28;599;-73
2022/09/11 03:47:22;;;;;;;;;;;;;;;19.48;63.54;101499.59;1060592;28;636;-74
2022/09/11 03:48:12;;;;;;;;;;;;;;;19.46;63.64;101498.88;1059709;28;712;-73
2022/09/11 03:49:03;;;;;;;;;;;;;;;19.46;63.90;101499.72;1057263;28;635;-74
2022/09/11 03:49:54;;;;;;;;;;;;;;;19.45;63.22;101491.75;1055526;28;701;-74
2022/09/11 03:50:45;;;;;;;;;;;;;;;19.45;63.42;101489.91;1060593;28;617;-74
2022/09/11 03:51:36;;;;;;;;;;;;;;;19.44;63.57;101485.50;1059674;28;616;-74
2022/09/11 03:52:29;;;;;;;;;;;;;;;19.44;63.86;101488.19;1060050;28;670;-74
2022/09/11 03:53:19;;;;;;;;;;;;;;;19.45;63.62;101494.47;1052801;28;664;-74
2022/09/11 03:54:09;;;;;;;;;;;;;;;19.44;63.69;101490.91;1052686;28;728;-74
2022/09/11 03:55:00;;;;;;;;;;;;;;;19.43;63.50;101491.91;1052830;28;645;-74
2022/09/11 03:55:50;;;;;;;;;;;;;;;19.45;63.63;101494.47;1052861;28;673;-74
2022/09/11 03:56:41;;;;;;;;;;;;;;;19.43;63.30;101489.19;1052721;28;605;-75
2022/09/11 03:57:32;;;;;;;;;;;;;;;19.42;63.11;101490.19;1052743;28;614;-74
2022/09/11 03:58:23;;;;;;;;;;;;;;;19.43;63.66;101489.19;1053540;28;635;-74
2022/09/11 03:59:13;;;;;;;;;;;;;;;19.43;62.79;101489.19;1053646;28;634;-74
2022/09/11 04:00:04;;;;;;;;;;;;;;;19.46;63.12;101498.88;1053520;28;622;-74
2022/09/11 04:00:55;;;;;;;;;;;;;;;19.43;63.23;101494.59;1053669;28;638;-74
2022/09/11 04:01:45;;;;;;;;;;;;;;;19.44;63.38;101496.31;1053049;28;618;-74
2022/09/11 04:02:35;;;;;;;;;;;;;;;19.43;63.16;101494.59;1052858;28;736;-74
2022/09/11 04:03:26;;;;;;;;;;;;;;;19.42;63.38;101495.59;1053579;28;705;-73
2022/09/11 04:04:16;;;;;;;;;;;;;;;19.41;62.85;101496.59;1052923;28;720;-73
2022/09/11 04:05:07;;;;;;;;;;;;;;;19.41;63.54;101507.41;1053556;28;654;-73
2022/09/11 04:05:57;;;;;;;;;;;;;;;19.41;63.40;101502.00;1053596;28;668;-73
2022/09/11 04:06:48;;;;;;;;;;;;;;;19.39;63.33;101506.69;1053475;28;640;-73
2022/09/11 04:07:38;;;;;;;;;;;;;;;19.38;63.09;101507.66;1053286;28;670;-73
2022/09/11 04:08:37;;;;;;;;;;;;;;;19.39;62.94;101503.97;1052534;28;677;-74
2022/09/11 04:09:30;;;;;;;;;;;;;;;19.37;63.18;101506.81;1052938;28;621;-73
2022/09/11 04:10:20;;;;;;;;;;;;;;;19.40;63.33;101497.56;1053488;28;708;-73
2022/09/11 04:11:11;;;;;;;;;;;;;;;19.40;63.53;101506.53;1052891;28;1913;-73
2022/09/11 04:12:01;;;;;;;;;;;;;;;19.39;62.92;101504.84;1053248;28;779;-73
2022/09/11 04:12:52;;;;;;;;;;;;;;;19.38;63.01;101507.66;1053342;28;868;-73
2022/09/11 04:13:42;;;;;;;;;;;;;;;19.38;62.96;101503.13;1053533;28;590;-73
2022/09/11 04:14:33;;;;;;;;;;;;;;;19.38;63.07;101502.25;1053484;28;708;-73
2022/09/11 04:15:23;;;;;;;;;;;;;;;19.37;62.92;101506.81;1053526;28;626;-74
2022/09/11 04:16:14;;;;;;;;;;;;;;;19.36;63.17;101502.41;1053458;28;644;-73
2022/09/11 04:17:05;;;;;;;;;;;;;;;19.36;62.87;101504.25;1053393;28;652;-73
2022/09/11 04:17:55;;;;;;;;;;;;;;;19.38;63.33;101511.22;1052957;28;626;-74
2022/09/11 04:18:45;;;;;;;;;;;;;;;19.39;62.83;101506.69;1053411;28;621;-73
2022/09/11 04:19:36;;;;;;;;;;;;;;;19.34;63.16;101508.97;1053550;28;606;-73
2022/09/11 04:20:26;;;;;;;;;;;;;;;19.34;63.06;101506.25;1053205;28;657;-73
2022/09/11 04:21:17;;;;;;;;;;;;;;;19.34;63.57;101506.25;1052436;28;670;-73
2022/09/11 04:22:07;;;;;;;;;;;;;;;19.35;63.51;101508.81;1053372;28;669;-73
2022/09/11 04:22:58;;;;;;;;;;;;;;;19.33;63.21;101510.81;1053449;28;566;-73
2022/09/11 04:23:48;;;;;;;;;;;;;;;19.32;63.19;101508.25;1053472;28;696;-73
2022/09/11 04:24:39;;;;;;;;;;;;;;;19.33;62.77;101507.25;1053090;28;653;-73
2022/09/11 04:25:29;;;;;;;;;;;;;;;19.31;63.35;101507.41;1053102;28;626;-73
2022/09/11 04:26:19;;;;;;;;;;;;;;;19.34;63.53;101506.25;1053363;28;654;-74